Time;durP1;ratioP1;P1;durP2;ratioP2;P2;SDS_P1;SDS_P2;PMS_P1;PMS_P2;Temp;Humidity;BMP_temperature;BMP_pressure;BME280_temperature;BME280_humidity;BME280_pressure;Samples;Min_cycle;Max_cycle;Signal;HPM_P1;HPM_P2
2021/06/18 00:02:27;;;;;;;20.70;13.25;;;17.60;99.90;;;;;;6250724;22;20020;-91
2021/06/18 00:06:26;;;;;;;23.60;13.45;;;17.60;99.90;;;;;;6295206;22;20026;-92
2021/06/18 00:09:50;;;;;;;24.73;12.20;;;17.60;99.90;;;;;;6205524;22;20003;-91
2021/06/18 00:18:17;;;;;;;21.23;12.10;;;17.70;99.90;;;;;;6269800;22;20026;-92
2021/06/18 00:21:43;;;;;;;18.45;12.10;;;17.60;99.90;;;;;;6308772;22;20029;-92
2021/06/18 00:28:53;;;;;;;19.80;11.25;;;17.40;99.90;;;;;;6206075;23;20022;-92
2021/06/18 00:32:34;;;;;;;21.02;11.38;;;17.40;99.90;;;;;;6239897;23;20016;-92
2021/06/18 00:35:40;;;;;;;21.15;12.00;;;17.40;99.90;;;;;;6211024;23;20017;-92
2021/06/18 00:38:55;;;;;;;21.95;12.00;;;17.40;99.90;;;;;;6207137;23;20236;-92
2021/06/18 00:41:49;;;;;;;22.50;11.20;;;17.20;99.90;;;;;;6152070;23;20033;-91
2021/06/18 00:45:04;;;;;;;22.38;13.10;;;17.30;99.90;;;;;;6129920;23;20018;-91
2021/06/18 00:48:04;;;;;;;18.60;11.90;;;17.40;99.90;;;;;;6146278;23;20021;-91
2021/06/18 00:51:55;;;;;;;19.60;11.90;;;17.30;99.90;;;;;;6130615;23;20017;-92
2021/06/18 00:55:29;;;;;;;18.38;11.43;;;16.60;99.90;;;;;;6119892;23;20010;-92
2021/06/18 00:58:38;;;;;;;24.48;13.00;;;16.20;99.90;;;;;;6150015;23;20064;-92
2021/06/18 01:01:58;;;;;;;20.65;12.82;;;17.40;99.90;;;;;;6151821;23;20028;-92
2021/06/18 01:04:55;;;;;;;25.95;16.52;;;17.30;99.90;;;;;;6100487;23;20328;-92
2021/06/18 01:08:03;;;;;;;23.17;12.98;;;17.30;99.90;;;;;;6151314;23;20001;-90
2021/06/18 01:56:58;;;;;;;26.33;14.38;;;17.00;99.90;;;;;;6227072;23;20030;-91
2021/06/18 01:59:43;;;;;;;24.25;16.80;;;17.00;99.90;;;;;;6172442;23;20016;-91
2021/06/18 02:02:28;;;;;;;24.92;14.65;;;17.20;99.90;;;;;;6195186;23;20031;-91
2021/06/18 02:04:59;;;;;;;23.40;13.63;;;17.00;99.90;;;;;;6149693;23;20023;-91
2021/06/18 02:07:32;;;;;;;25.40;12.45;;;16.90;99.90;;;;;;6199762;23;20017;-92
2021/06/18 02:10:13;;;;;;;23.92;13.18;;;17.30;99.90;;;;;;6175350;23;20026;-92
2021/06/18 02:13:16;;;;;;;;;;;17.00;99.90;;;;;;6218756;23;20018;-91
2021/06/18 02:16:04;;;;;;;21.27;12.27;;;17.00;99.90;;;;;;6227444;23;19916;-91
2021/06/18 02:18:50;;;;;;;24.13;12.30;;;16.90;99.90;;;;;;6179505;23;20013;-92
2021/06/18 02:21:55;;;;;;;20.52;11.93;;;16.90;99.90;;;;;;6208353;23;20023;-93
2021/06/18 02:30:06;;;;;;;21.13;12.00;;;16.90;99.90;;;;;;6233555;23;20506;-91
2021/06/18 02:32:38;;;;;;;23.65;11.80;;;16.90;99.90;;;;;;6175205;23;20389;-92
2021/06/18 02:35:21;;;;;;;26.45;13.00;;;16.90;99.90;;;;;;6149681;23;20023;-91
2021/06/18 02:37:53;;;;;;;20.63;12.00;;;16.90;99.90;;;;;;6177071;23;20035;-91
2021/06/18 02:40:26;;;;;;;27.02;13.18;;;16.90;99.90;;;;;;6200463;23;20020;-90
2021/06/18 02:43:23;;;;;;;27.52;13.93;;;16.90;99.90;;;;;;6151140;23;20017;-92
2021/06/18 02:45:55;;;;;;;20.92;11.18;;;16.90;99.90;;;;;;6200417;23;20013;-90
2021/06/18 02:48:46;;;;;;;22.95;12.55;;;16.90;99.90;;;;;;6157094;23;20016;-91
2021/06/18 02:51:41;;;;;;;23.45;12.07;;;17.00;99.90;;;;;;6183381;23;20027;-92
2021/06/18 02:54:22;;;;;;;22.25;10.60;;;16.90;99.90;;;;;;6230309;23;20009;-91
2021/06/18 02:57:09;;;;;;;23.80;13.32;;;16.90;99.90;;;;;;6174173;23;20017;-92
2021/06/18 03:00:04;;;;;;;23.38;10.50;;;16.90;99.90;;;;;;6172279;23;20050;-91
2021/06/18 03:02:57;;;;;;;20.35;10.18;;;18.00;99.90;;;;;;6173426;23;20039;-92
2021/06/18 03:05:47;;;;;;;20.15;10.05;;;16.90;99.90;;;;;;6221798;23;20027;-92
2021/06/18 03:08:17;;;;;;;18.38;10.55;;;16.80;99.90;;;;;;6174048;23;20017;-92
2021/06/18 03:10:53;;;;;;;17.73;9.23;;;16.80;99.90;;;;;;6178396;23;20022;-91
2021/06/18 03:13:45;;;;;;;16.20;9.35;;;16.90;99.90;;;;;;6197619;23;20026;-93
2021/06/18 03:16:22;;;;;;;21.27;10.48;;;16.80;99.90;;;;;;6201811;23;20352;-93
2021/06/18 03:19:08;;;;;;;18.35;9.82;;;16.80;99.90;;;;;;6175823;23;20027;-92
2021/06/18 03:21:45;;;;;;;17.15;11.35;;;15.70;99.90;;;;;;6202574;23;20013;-92
2021/06/18 03:24:31;;;;;;;18.25;9.45;;;16.80;99.90;;;;;;6202705;23;20024;-92
2021/06/18 03:27:04;;;;;;;22.05;10.52;;;16.80;99.90;;;;;;6202535;23;20594;-92
2021/06/18 03:29:35;;;;;;;18.27;10.82;;;16.90;99.90;;;;;;6177094;23;20043;-91
2021/06/18 03:32:15;;;;;;;15.13;8.48;;;16.80;99.90;;;;;;6179476;23;20240;-91
2021/06/18 03:34:58;;;;;;;19.58;9.48;;;16.80;99.90;;;;;;6153815;23;20020;-92
2021/06/18 03:37:37;;;;;;;15.52;9.48;;;16.70;99.90;;;;;;6207023;23;20016;-92
2021/06/18 03:40:14;;;;;;;16.15;8.65;;;16.70;99.90;;;;;;6180425;23;20016;-92
2021/06/18 03:43:01;;;;;;;20.13;9.70;;;16.80;99.90;;;;;;6180671;23;20031;-91
2021/06/18 03:45:46;;;;;;;16.75;9.93;;;15.40;99.90;;;;;;6178768;23;20027;-92
2021/06/18 03:48:37;;;;;;;19.20;10.95;;;16.60;99.90;;;;;;6156288;23;20017;-92
2021/06/18 03:51:18;;;;;;;17.00;10.52;;;16.60;99.90;;;;;;6156266;23;20024;-91
2021/06/18 03:54:04;;;;;;;15.75;9.25;;;16.60;99.90;;;;;;6151600;23;20023;-91
2021/06/18 03:56:48;;;;;;;17.05;9.82;;;16.60;99.90;;;;;;6172537;23;20035;-92
2021/06/18 03:59:33;;;;;;;17.98;9.20;;;16.10;99.90;;;;;;6154880;23;20021;-92
2021/06/18 04:02:20;;;;;;;16.17;7.80;;;16.60;99.90;;;;;;6179887;23;20031;-91
2021/06/18 04:04:53;;;;;;;18.15;10.13;;;16.60;99.90;;;;;;6178554;23;20020;-91
2021/06/18 04:07:46;;;;;;;;;;;16.60;99.90;;;;;;6195632;23;20021;-91
2021/06/18 04:10:20;;;;;;;15.65;8.07;;;16.60;99.90;;;;;;6177536;23;19915;-91
2021/06/18 04:13:01;;;;;;;17.98;9.85;;;16.60;99.90;;;;;;6177109;23;20025;-92
2021/06/18 04:15:36;;;;;;;;;;;16.60;99.90;;;;;;6200197;23;20023;-90
2021/06/18 04:18:12;;;;;;;16.52;8.32;;;16.80;99.90;;;;;;6224116;23;19916;-92
2021/06/18 04:20:41;;;;;;;14.55;8.18;;;16.60;99.90;;;;;;6150642;23;20021;-91
2021/06/18 04:23:16;;;;;;;14.18;8.07;;;16.60;99.90;;;;;;6199468;23;20016;-92
2021/06/18 04:26:08;;;;;;;;;;;16.60;99.90;;;;;;6155441;23;20012;-91
2021/06/18 04:28:44;;;;;;;14.13;7.72;;;16.60;99.90;;;;;;6155457;23;19930;-91
2021/06/18 04:31:13;;;;;;;14.35;8.23;;;16.50;99.90;;;;;;6202536;23;20019;-91
2021/06/18 04:33:44;;;;;;;13.63;7.43;;;16.50;99.90;;;;;;6200892;23;20027;-91
2021/06/18 04:36:15;;;;;;;10.63;7.38;;;16.50;99.90;;;;;;6206034;23;20023;-91
2021/06/18 04:38:47;;;;;;;13.02;6.82;;;16.50;99.90;;;;;;6203858;23;20031;-92
2021/06/18 04:41:19;;;;;;;13.15;7.40;;;16.70;99.90;;;;;;6178532;23;20336;-92
2021/06/18 04:43:52;;;;;;;13.98;6.78;;;16.90;99.90;;;;;;6156080;23;20039;-93
2021/06/18 04:46:33;;;;;;;13.77;7.65;;;16.60;99.90;;;;;;6178462;23;20017;-91
2021/06/18 04:49:18;;;;;;;15.07;7.18;;;16.50;99.90;;;;;;6179052;23;20021;-92
2021/06/18 04:51:52;;;;;;;13.48;7.65;;;16.50;99.90;;;;;;6202457;23;20031;-92
2021/06/18 04:54:24;;;;;;;12.40;7.00;;;16.50;99.90;;;;;;6150416;23;20023;-92
2021/06/18 04:57:00;;;;;;;11.18;6.68;;;16.60;99.90;;;;;;6156014;23;20016;-92
2021/06/18 04:59:30;;;;;;;12.15;6.82;;;16.50;99.90;;;;;;6178136;23;20016;-93
2021/06/18 05:02:00;;;;;;;13.65;7.47;;;15.40;99.90;;;;;;6175037;23;20020;-91
2021/06/18 05:04:29;;;;;;;13.38;6.68;;;16.60;99.90;;;;;;6176330;23;20020;-92
2021/06/18 05:07:15;;;;;;;11.82;6.93;;;16.60;99.90;;;;;;6155898;23;20027;-92
2021/06/18 05:09:59;;;;;;;11.52;6.38;;;16.50;99.90;;;;;;6179799;23;20017;-92
2021/06/18 05:12:37;;;;;;;13.30;7.40;;;16.60;99.90;;;;;;6178361;23;20020;-92
2021/06/18 05:15:24;;;;;;;13.05;6.65;;;16.40;99.90;;;;;;6204686;23;20017;-92
2021/06/18 05:18:33;;;;;;;7.78;5.03;;;16.60;99.90;;;;;;6203942;23;20023;-91
2021/06/18 05:21:16;;;;;;;;;;;16.50;99.90;;;;;;6160067;23;20038;-91
2021/06/18 05:24:01;;;;;;;8.32;5.15;;;16.60;99.90;;;;;;6203250;23;19916;-92
2021/06/18 05:26:47;;;;;;;8.20;5.30;;;16.50;99.90;;;;;;6179277;23;20013;-93
2021/06/18 05:29:36;;;;;;;10.18;4.93;;;16.50;99.90;;;;;;6158967;23;20024;-93
2021/06/18 05:32:29;;;;;;;7.75;5.55;;;16.50;99.90;;;;;;6204369;23;20020;-92
2021/06/18 05:35:16;;;;;;;10.07;5.18;;;16.60;99.90;;;;;;6233183;23;20020;-92
2021/06/18 05:38:54;;;;;;;8.40;5.18;;;16.60;99.90;;;;;;6207100;23;20028;-93
2021/06/18 05:41:38;;;;;;;9.75;4.72;;;16.60;99.90;;;;;;6174672;23;20024;-92
2021/06/18 05:44:47;;;;;;;10.60;5.20;;;16.50;99.90;;;;;;6176767;23;20023;-91
2021/06/18 05:47:38;;;;;;;11.82;6.18;;;16.70;99.90;;;;;;6176324;23;20020;-91
2021/06/18 05:50:14;;;;;;;11.75;5.82;;;16.60;99.90;;;;;;6200672;23;20016;-91
2021/06/18 05:52:49;;;;;;;9.82;5.85;;;16.50;99.90;;;;;;6176291;23;20030;-90
2021/06/18 05:55:20;;;;;;;12.15;7.05;;;16.50;99.90;;;;;;6175061;23;20017;-91
2021/06/18 05:57:57;;;;;;;10.55;6.30;;;16.60;99.90;;;;;;6175683;23;20024;-92
2021/06/18 06:00:38;;;;;;;9.00;5.53;;;16.60;99.90;;;;;;6154433;23;20012;-92
2021/06/18 06:03:15;;;;;;;9.98;5.55;;;16.60;99.90;;;;;;6202702;23;20017;-91
2021/06/18 06:06:01;;;;;;;11.25;5.03;;;16.60;99.90;;;;;;6157508;23;20021;-91
2021/06/18 06:08:54;;;;;;;8.38;5.80;;;16.60;99.90;;;;;;6175266;23;20016;-92
2021/06/18 06:11:45;;;;;;;9.13;5.55;;;16.60;99.90;;;;;;6204218;23;20042;-92
2021/06/18 06:14:18;;;;;;;9.55;4.97;;;16.60;99.90;;;;;;6149974;23;20019;-93
2021/06/18 06:17:03;;;;;;;12.70;4.80;;;16.50;99.90;;;;;;6172220;23;20027;-91
2021/06/18 06:19:35;;;;;;;11.23;5.53;;;16.50;99.90;;;;;;6199104;23;20031;-93
2021/06/18 06:22:36;;;;;;;8.95;5.28;;;16.50;99.90;;;;;;6176879;23;20020;-92
2021/06/18 06:25:29;;;;;;;11.70;7.03;;;16.60;99.90;;;;;;6181317;23;20004;-92
2021/06/18 06:28:02;;;;;;;9.45;5.63;;;16.70;99.90;;;;;;6200930;23;20021;-91
2021/06/18 06:30:44;;;;;;;10.27;5.40;;;16.90;99.90;;;;;;6178868;23;20027;-92
2021/06/18 06:33:14;;;;;;;10.23;5.87;;;16.50;99.90;;;;;;6177474;23;20031;-92
2021/06/18 06:35:46;;;;;;;17.15;7.38;;;16.50;99.90;;;;;;6178388;23;20016;-90
2021/06/18 06:38:19;;;;;;;11.73;6.00;;;16.50;99.90;;;;;;6146765;23;20020;-91
2021/06/18 06:40:52;;;;;;;10.93;5.43;;;16.70;99.90;;;;;;6166094;23;20017;-86
2021/06/18 06:43:21;;;;;;;14.82;6.13;;;16.50;99.90;;;;;;6170728;23;20020;-90
2021/06/18 06:45:50;;;;;;;12.48;6.35;;;16.60;99.90;;;;;;6169508;23;20020;-89
2021/06/18 06:48:30;;;;;;;13.48;6.53;;;16.40;99.90;;;;;;6169651;23;20020;-90
2021/06/18 06:51:02;;;;;;;18.65;7.38;;;16.40;99.90;;;;;;6219641;23;20035;-89
2021/06/18 06:53:37;;;;;;;17.87;7.90;;;16.30;99.90;;;;;;6172515;23;20020;-88
2021/06/18 06:56:14;;;;;;;17.50;6.05;;;16.30;99.90;;;;;;6169607;23;20017;-89
2021/06/18 06:58:44;;;;;;;12.32;6.25;;;16.10;99.90;;;;;;6174534;23;20032;-87
2021/06/18 07:01:13;;;;;;;17.35;5.57;;;16.30;99.90;;;;;;6219881;23;20013;-90
2021/06/18 07:03:44;;;;;;;7.07;4.25;;;16.30;99.90;;;;;;6148648;23;20016;-90
2021/06/18 07:06:22;;;;;;;7.72;4.35;;;16.20;99.90;;;;;;6177591;23;20025;-90
2021/06/18 07:09:07;;;;;;;5.30;3.55;;;17.60;99.90;;;;;;6197495;23;20021;-90
2021/06/18 07:11:38;;;;;;;6.53;4.03;;;16.20;99.90;;;;;;6199691;23;20023;-91
2021/06/18 07:14:09;;;;;;;10.40;4.55;;;16.10;99.90;;;;;;6224077;23;20021;-87
2021/06/18 07:16:54;;;;;;;9.50;3.65;;;16.30;99.90;;;;;;6172895;23;20019;-87
2021/06/18 07:19:25;;;;;;;14.45;4.38;;;16.30;99.90;;;;;;6197607;23;20029;-88
2021/06/18 07:22:03;;;;;;;6.20;2.92;;;16.30;99.90;;;;;;6170789;23;20017;-85
2021/06/18 07:24:31;;;;;;;5.63;2.95;;;16.20;99.90;;;;;;6194215;23;20016;-87
2021/06/18 07:26:59;;;;;;;6.13;3.10;;;16.30;99.90;;;;;;6217396;23;20041;-87
2021/06/18 07:29:27;;;;;;;5.55;3.75;;;16.20;99.90;;;;;;6166674;23;20024;-89
2021/06/18 07:31:57;;;;;;;9.00;3.28;;;16.30;99.90;;;;;;6145081;23;20012;-86
2021/06/18 07:34:29;;;;;;;8.57;3.55;;;16.30;99.90;;;;;;6222227;23;20042;-85
2021/06/18 07:36:57;;;;;;;5.75;2.72;;;16.30;99.90;;;;;;6221725;23;20032;-86
2021/06/18 07:39:47;;;;;;;5.93;2.58;;;16.30;99.90;;;;;;6219026;23;20028;-86
2021/06/18 07:42:33;;;;;;;5.38;2.97;;;16.30;99.90;;;;;;6219781;23;20027;-86
2021/06/18 07:45:03;;;;;;;6.00;3.75;;;16.30;99.90;;;;;;6221397;23;20027;-87
2021/06/18 07:47:43;;;;;;;5.40;2.67;;;16.30;99.90;;;;;;6220255;23;20027;-87
2021/06/18 07:50:24;;;;;;;6.03;3.38;;;16.30;99.90;;;;;;6200842;23;20031;-86
2021/06/18 07:52:59;;;;;;;3.75;3.00;;;16.40;99.90;;;;;;6172206;23;20025;-87
2021/06/18 07:55:30;;;;;;;5.28;3.97;;;16.40;99.90;;;;;;6168378;23;20047;-86
2021/06/18 07:58:01;;;;;;;5.60;2.90;;;16.40;99.90;;;;;;6196936;23;20024;-85
2021/06/18 08:00:29;;;;;;;4.13;2.30;;;16.40;99.90;;;;;;6196831;23;20019;-87
2021/06/18 08:03:02;;;;;;;4.15;2.80;;;16.40;99.90;;;;;;6195383;23;20259;-86
2021/06/18 08:05:31;;;;;;;9.48;2.47;;;16.40;99.90;;;;;;6225611;23;20017;-87
2021/06/18 08:07:59;;;;;;;1.95;1.67;;;16.40;99.90;;;;;;6172107;23;20043;-86
2021/06/18 08:10:50;;;;;;;1.48;1.38;;;16.40;99.90;;;;;;6152322;23;20013;-86
2021/06/18 08:13:23;;;;;;;1.83;1.40;;;16.40;99.90;;;;;;6218002;23;20445;-87
2021/06/18 08:15:55;;;;;;;4.93;1.92;;;16.40;99.90;;;;;;6222047;23;20016;-87
2021/06/18 08:18:28;;;;;;;4.40;1.60;;;16.40;99.90;;;;;;6197421;23;20021;-86
2021/06/18 08:20:58;;;;;;;2.22;1.30;;;16.40;99.90;;;;;;6225624;23;20028;-87
2021/06/18 08:23:27;;;;;;;2.42;1.50;;;16.40;99.90;;;;;;6174054;23;20024;-87
2021/06/18 08:26:01;;;;;;;4.10;2.10;;;16.40;99.90;;;;;;6227582;23;20017;-87
2021/06/18 08:28:30;;;;;;;4.53;2.42;;;16.40;99.90;;;;;;6204803;23;20016;-88
2021/06/18 08:30:59;;;;;;;4.32;1.65;;;16.40;99.90;;;;;;6228717;23;20032;-88
2021/06/18 08:33:28;;;;;;;3.83;1.98;;;16.00;99.90;;;;;;6179134;23;20027;-87
2021/06/18 08:36:04;;;;;;;7.43;1.63;;;16.30;99.90;;;;;;6176777;23;20074;-88
2021/06/18 08:38:35;;;;;;;2.08;1.63;;;16.30;99.90;;;;;;6199728;23;20029;-87
2021/06/18 08:41:08;;;;;;;1.90;1.67;;;16.30;99.90;;;;;;6223700;23;20369;-87
2021/06/18 08:43:36;;;;;;;2.78;1.52;;;16.30;99.90;;;;;;6195970;23;20017;-87
2021/06/18 08:46:07;;;;;;;1.42;1.33;;;16.30;99.90;;;;;;6171596;23;20025;-88
2021/06/18 08:48:35;;;;;;;5.28;1.33;;;16.30;99.90;;;;;;6170484;23;20019;-88
2021/06/18 08:51:04;;;;;;;2.83;1.58;;;16.40;99.90;;;;;;6222953;23;20024;-90
2021/06/18 08:53:36;;;;;;;1.88;1.30;;;16.40;99.90;;;;;;6199908;23;20024;-87
2021/06/18 08:56:08;;;;;;;2.13;1.55;;;16.40;99.90;;;;;;6228626;23;20017;-87
2021/06/18 08:58:40;;;;;;;3.05;2.00;;;16.40;99.90;;;;;;6147980;23;20046;-88
2021/06/18 09:01:08;;;;;;;2.45;2.00;;;16.40;99.90;;;;;;6148624;23;20020;-88
2021/06/18 09:03:51;;;;;;;4.15;1.90;;;16.30;99.90;;;;;;6204903;23;20035;-87
2021/06/18 09:06:27;;;;;;;4.00;1.80;;;16.40;99.90;;;;;;6173843;23;20484;-88
2021/06/18 09:09:15;;;;;;;3.58;1.70;;;16.40;99.90;;;;;;6172639;23;20021;-89
2021/06/18 09:11:52;;;;;;;2.42;1.60;;;16.40;99.90;;;;;;6196727;23;20020;-86
2021/06/18 09:14:33;;;;;;;4.82;1.23;;;16.30;99.90;;;;;;6223371;23;20024;-85
2021/06/18 09:17:07;;;;;;;2.05;1.85;;;16.30;99.90;;;;;;6221958;23;20319;-90
2021/06/18 09:20:00;;;;;;;2.55;1.55;;;16.40;99.90;;;;;;6222960;23;20024;-87
2021/06/18 09:22:42;;;;;;;4.15;2.03;;;16.50;99.90;;;;;;6195495;23;20021;-87
2021/06/18 09:25:16;;;;;;;2.42;1.60;;;16.30;99.90;;;;;;6222148;23;20108;-87
2021/06/18 09:27:51;;;;;;;3.00;1.80;;;16.40;99.90;;;;;;6196078;23;20021;-88
2021/06/18 09:30:34;;;;;;;4.80;1.98;;;16.40;99.90;;;;;;6198882;23;20011;-86
2021/06/18 09:33:23;;;;;;;7.07;1.70;;;16.40;99.90;;;;;;6226550;23;20017;-87
2021/06/18 09:36:08;;;;;;;1.70;1.60;;;16.40;99.90;;;;;;6201745;23;20021;-88
2021/06/18 09:38:42;;;;;;;2.23;2.03;;;16.40;99.90;;;;;;6198000;23;20013;-87
2021/06/18 09:41:50;;;;;;;3.85;2.38;;;16.40;99.90;;;;;;6171610;23;20266;-89
2021/06/18 09:44:22;;;;;;;4.05;2.20;;;17.10;99.90;;;;;;6169989;23;20021;-88
2021/06/18 09:46:51;;;;;;;;;;;16.30;99.90;;;;;;6194543;23;20032;-89
2021/06/18 09:49:41;;;;;;;2.20;1.77;;;16.30;99.90;;;;;;6194942;23;19920;-88
2021/06/18 09:52:15;;;;;;;1.88;1.70;;;16.30;99.90;;;;;;6195633;23;20020;-89
2021/06/18 09:54:46;;;;;;;2.38;1.80;;;16.30;99.90;;;;;;6223790;23;20038;-87
2021/06/18 09:57:17;;;;;;;3.40;2.58;;;16.30;99.90;;;;;;6195487;23;20012;-87
2021/06/18 10:00:00;;;;;;;3.10;2.08;;;16.30;99.90;;;;;;6197398;23;20028;-87
2021/06/18 10:02:48;;;;;;;2.13;1.90;;;16.30;99.90;;;;;;6173362;23;20026;-87
2021/06/18 10:05:32;;;;;;;2.55;1.90;;;16.30;99.90;;;;;;6197820;23;20020;-88
2021/06/18 10:08:03;;;;;;;3.53;1.60;;;17.20;99.90;;;;;;6201252;23;20020;-90
2021/06/18 10:10:38;;;;;;;3.10;1.80;;;16.10;99.90;;;;;;6198686;23;20035;-89
2021/06/18 10:13:09;;;;;;;2.70;1.50;;;16.60;99.90;;;;;;6176407;23;20016;-89
2021/06/18 10:15:41;;;;;;;2.53;1.40;;;16.40;99.90;;;;;;6151074;23;20024;-89
2021/06/18 10:18:12;;;;;;;;;;;16.40;99.90;;;;;;6150637;23;20030;-88
2021/06/18 10:20:42;;;;;;;3.10;1.42;;;16.40;99.90;;;;;;6201430;23;19920;-86
2021/06/18 10:23:15;;;;;;;3.03;1.45;;;16.50;99.90;;;;;;6197113;23;20013;-88
2021/06/18 10:25:56;;;;;;;1.95;1.52;;;16.50;99.90;;;;;;6175481;23;20021;-89
2021/06/18 10:28:29;;;;;;;2.75;1.40;;;16.50;99.90;;;;;;6198647;23;20053;-90
2021/06/18 10:31:28;;;;;;;1.63;1.38;;;16.50;99.90;;;;;;6201025;23;20025;-90
2021/06/18 10:34:07;;;;;;;2.97;1.40;;;16.50;99.90;;;;;;6147886;23;20017;-89
2021/06/18 10:36:36;;;;;;;2.05;1.42;;;16.50;99.90;;;;;;6223564;23;20246;-90
2021/06/18 10:39:14;;;;;;;2.83;1.50;;;16.50;99.90;;;;;;6197704;23;20017;-89
2021/06/18 10:41:47;;;;;;;2.47;1.70;;;16.60;99.90;;;;;;6172387;23;20027;-90
2021/06/18 10:44:37;;;;;;;2.75;1.77;;;16.60;99.90;;;;;;6171999;23;20025;-91
2021/06/18 10:47:06;;;;;;;1.38;1.20;;;16.60;99.90;;;;;;6199267;23;20028;-90
2021/06/18 10:49:39;;;;;;;2.15;1.55;;;16.60;99.90;;;;;;6148555;23;20020;-88
2021/06/18 10:52:15;;;;;;;2.13;1.30;;;16.60;99.90;;;;;;6172798;23;20051;-89
2021/06/18 10:54:56;;;;;;;1.85;1.30;;;16.70;99.90;;;;;;6223557;23;20032;-88
2021/06/18 10:57:29;;;;;;;1.67;1.30;;;16.70;99.90;;;;;;6230506;23;20020;-89
2021/06/18 11:00:10;;;;;;;4.30;1.13;;;16.60;99.90;;;;;;6199831;23;20031;-88
2021/06/18 11:02:40;;;;;;;5.10;1.23;;;16.70;99.90;;;;;;6225216;23;20023;-87
2021/06/18 11:05:25;;;;;;;2.50;1.42;;;16.70;99.90;;;;;;6172109;23;20017;-89
2021/06/18 11:08:26;;;;;;;1.25;1.17;;;16.70;99.90;;;;;;6196780;23;20023;-89
2021/06/18 11:11:26;;;;;;;3.67;1.58;;;16.60;99.90;;;;;;6199352;23;20027;-88
2021/06/18 11:14:05;;;;;;;2.05;1.42;;;16.60;99.90;;;;;;6178853;23;20016;-88
2021/06/18 11:16:41;;;;;;;5.78;1.30;;;16.60;99.90;;;;;;6200812;23;20021;-87
2021/06/18 11:19:27;;;;;;;1.98;1.40;;;16.70;99.90;;;;;;6199416;23;20012;-85
2021/06/18 11:21:57;;;;;;;1.70;1.60;;;16.70;99.90;;;;;;6199241;23;20478;-87
2021/06/18 11:24:43;;;;;;;12.50;3.25;;;16.70;99.90;;;;;;6173836;23;20039;-89
2021/06/18 11:27:26;;;;;;;3.75;1.98;;;16.70;99.90;;;;;;6147279;23;20021;-86
2021/06/18 11:30:28;;;;;;;3.70;1.77;;;16.70;99.90;;;;;;6195305;23;20017;-85
2021/06/18 11:32:57;;;;;;;3.83;2.25;;;16.70;99.90;;;;;;6176086;23;20020;-86
2021/06/18 11:35:32;;;;;;;3.40;2.10;;;16.70;99.90;;;;;;6223186;23;20024;-84
2021/06/18 11:38:17;;;;;;;3.47;1.73;;;16.70;99.90;;;;;;6179382;23;20024;-88
2021/06/18 11:41:00;;;;;;;4.28;1.88;;;16.80;99.90;;;;;;6201833;23;20020;-89
2021/06/18 11:43:31;;;;;;;2.90;1.60;;;16.80;99.90;;;;;;6202630;23;20024;-88
2021/06/18 11:46:05;;;;;;;4.95;2.20;;;16.80;99.90;;;;;;6179180;23;20017;-88
2021/06/18 11:48:42;;;;;;;3.72;1.77;;;16.80;99.90;;;;;;6203170;23;20025;-88
2021/06/18 11:51:24;;;;;;;2.40;1.90;;;16.80;99.90;;;;;;6179840;23;20016;-87
2021/06/18 11:53:57;;;;;;;3.53;1.90;;;16.90;99.90;;;;;;6180860;23;20017;-88
2021/06/18 11:56:31;;;;;;;2.40;2.20;;;16.90;99.90;;;;;;6205252;23;20445;-89
2021/06/18 11:59:00;;;;;;;5.57;2.60;;;16.90;99.90;;;;;;6202983;23;20025;-87
2021/06/18 12:01:31;;;;;;;3.47;2.35;;;16.90;99.90;;;;;;6177445;23;20020;-87
2021/06/18 12:04:04;;;;;;;3.08;2.78;;;16.90;99.90;;;;;;6216201;23;20024;-86
2021/06/18 12:06:39;;;;;;;2.85;2.40;;;16.90;99.90;;;;;;6225187;23;20025;-87
2021/06/18 12:09:19;;;;;;;2.90;2.20;;;17.00;99.90;;;;;;6176153;23;20034;-86
2021/06/18 12:12:00;;;;;;;3.42;2.25;;;17.00;99.90;;;;;;6201067;23;20021;-86
2021/06/18 12:14:40;;;;;;;4.63;2.88;;;17.00;99.90;;;;;;6200035;23;20478;-87
2021/06/18 12:17:21;;;;;;;2.13;1.88;;;17.00;99.90;;;;;;6179768;23;20046;-87
2021/06/18 12:19:53;;;;;;;4.87;2.30;;;15.90;99.90;;;;;;6204339;23;20027;-88
2021/06/18 12:22:45;;;;;;;;;;;;;;;;;;;;;
2021/06/18 12:25:25;;;;;;;4.68;2.58;;;16.90;99.90;;;;;;6229008;23;20016;-87
2021/06/18 12:28:00;;;;;;;7.45;2.13;;;16.90;99.90;;;;;;6177315;23;20023;-87
2021/06/18 12:30:36;;;;;;;3.50;2.30;;;16.90;99.90;;;;;;6173236;23;20013;-88
2021/06/18 12:33:11;;;;;;;;;;;16.90;99.90;;;;;;6220372;23;20596;-87
2021/06/18 12:35:49;;;;;;;2.95;2.25;;;16.90;99.90;;;;;;6200014;23;19920;-86
2021/06/18 12:38:28;;;;;;;5.03;1.85;;;16.90;99.90;;;;;;6224973;23;20016;-86
2021/06/18 12:41:41;;;;;;;3.72;2.20;;;16.40;99.90;;;;;;6222832;23;20025;-86
2021/06/18 12:44:12;;;;;;;1.90;1.80;;;16.80;99.90;;;;;;6223620;23;20027;-86
2021/06/18 12:47:10;;;;;;;2.50;1.92;;;16.90;99.90;;;;;;6199134;23;20027;-86
2021/06/18 12:49:44;;;;;;;1.83;1.70;;;16.90;99.90;;;;;;6223203;23;20025;-87
2021/06/18 12:52:15;;;;;;;3.10;2.25;;;16.80;99.90;;;;;;6200125;23;20047;-87
2021/06/18 12:55:15;;;;;;;2.85;2.55;;;16.80;99.90;;;;;;6227506;23;20024;-87
2021/06/18 12:57:44;;;;;;;3.22;2.47;;;16.90;99.90;;;;;;6226424;23;20020;-86
2021/06/18 13:00:15;;;;;;;3.28;2.33;;;16.90;99.90;;;;;;6201482;23;20027;-86
2021/06/18 13:02:45;;;;;;;7.73;4.00;;;16.90;99.90;;;;;;6225104;23;20023;-87
2021/06/18 13:05:20;;;;;;;4.30;3.07;;;16.90;99.90;;;;;;6227122;23;20021;-87
2021/06/18 13:07:49;;;;;;;9.43;4.07;;;17.00;99.90;;;;;;6233907;23;20076;-89
2021/06/18 13:10:21;;;;;;;4.78;3.28;;;17.00;99.90;;;;;;6199266;23;20017;-87
2021/06/18 13:12:55;;;;;;;5.90;3.13;;;17.00;99.90;;;;;;6173980;23;20023;-88
2021/06/18 13:15:28;;;;;;;7.47;3.55;;;17.10;99.90;;;;;;6195999;23;20576;-87
2021/06/18 13:18:01;;;;;;;5.13;3.28;;;17.10;99.90;;;;;;6197404;23;20016;-86
2021/06/18 13:20:33;;;;;;;4.47;3.20;;;17.20;99.90;;;;;;6198260;23;20024;-86
2021/06/18 13:23:23;;;;;;;3.08;2.78;;;17.20;99.90;;;;;;6225172;23;20016;-87
2021/06/18 13:26:11;;;;;;;3.65;2.75;;;17.40;99.90;;;;;;6197838;23;20348;-87
2021/06/18 13:28:51;;;;;;;5.10;2.85;;;17.30;99.90;;;;;;6198246;23;20024;-86
2021/06/18 13:31:33;;;;;;;4.20;2.65;;;17.30;99.90;;;;;;6198428;23;20016;-87
2021/06/18 13:34:04;;;;;;;;;;;17.30;99.90;;;;;;6175098;23;20023;-87
2021/06/18 13:36:41;;;;;;;2.72;2.35;;;17.30;99.90;;;;;;6198176;23;19930;-87
2021/06/18 13:39:24;;;;;;;4.72;2.65;;;17.40;99.90;;;;;;6236284;23;20020;-88
2021/06/18 13:41:53;;;;;;;6.60;2.33;;;17.40;99.90;;;;;;6174303;23;20016;-88
2021/06/18 13:44:28;;;;;;;2.58;2.33;;;17.40;99.90;;;;;;6174502;23;20017;-87
2021/06/18 13:46:59;;;;;;;2.10;1.90;;;17.40;99.90;;;;;;6198094;23;20027;-87
2021/06/18 13:49:32;;;;;;;5.57;2.30;;;17.40;99.90;;;;;;6151895;23;20031;-87
2021/06/18 13:52:19;;;;;;;2.25;2.00;;;17.40;99.90;;;;;;6203129;23;20043;-87
2021/06/18 13:54:52;;;;;;;6.45;2.25;;;17.40;99.90;;;;;;6152083;23;20028;-87
2021/06/18 13:57:45;;;;;;;2.53;1.92;;;17.40;99.90;;;;;;6200880;23;20076;-88
2021/06/18 14:00:18;;;;;;;4.05;1.77;;;17.40;99.90;;;;;;6176208;23;20169;-87
2021/06/18 14:02:49;;;;;;;3.35;2.35;;;17.30;99.90;;;;;;6226218;23;20043;-86
2021/06/18 14:05:19;;;;;;;3.15;1.98;;;17.00;99.90;;;;;;6201106;23;20020;-87
2021/06/18 14:07:49;;;;;;;3.28;2.15;;;17.30;99.90;;;;;;6176221;23;20026;-86
2021/06/18 14:10:19;;;;;;;3.75;1.83;;;17.20;99.90;;;;;;6200895;23;20020;-86
2021/06/18 14:12:51;;;;;;;2.38;1.90;;;17.20;99.90;;;;;;6231446;23;20020;-86
2021/06/18 14:15:23;;;;;;;3.47;2.10;;;17.10;99.90;;;;;;6223593;23;20020;-86
2021/06/18 14:18:00;;;;;;;5.93;2.28;;;17.10;99.90;;;;;;6228312;23;20009;-87
2021/06/18 14:20:35;;;;;;;2.53;2.05;;;17.10;99.90;;;;;;6198547;23;20024;-87
2021/06/18 14:23:06;;;;;;;2.80;2.05;;;17.10;99.90;;;;;;6199372;23;20023;-85
2021/06/18 14:25:34;;;;;;;5.68;2.45;;;17.10;99.90;;;;;;6225169;23;20021;-87
2021/06/18 14:28:08;;;;;;;2.95;1.80;;;17.10;99.90;;;;;;6174443;23;20013;-84
2021/06/18 14:31:07;;;;;;;2.80;1.63;;;17.10;99.90;;;;;;6217004;23;20029;-84
2021/06/18 14:33:36;;;;;;;5.20;2.15;;;17.10;99.90;;;;;;6193930;23;20031;-84
2021/06/18 14:36:05;;;;;;;2.40;1.83;;;17.10;99.90;;;;;;6226146;23;20044;-83
2021/06/18 14:38:34;;;;;;;1.98;1.70;;;17.20;99.90;;;;;;6172026;23;20017;-84
2021/06/18 14:41:02;;;;;;;3.75;1.98;;;17.80;99.90;;;;;;6194912;23;20024;-84
2021/06/18 14:43:30;;;;;;;2.38;1.63;;;17.20;99.90;;;;;;6171240;23;20437;-85
2021/06/18 14:46:01;;;;;;;4.05;2.17;;;17.20;99.90;;;;;;6221625;23;20027;-84
2021/06/18 14:48:33;;;;;;;4.15;2.50;;;17.20;99.90;;;;;;6221774;23;20016;-83
2021/06/18 14:51:01;;;;;;;2.70;1.88;;;17.00;99.90;;;;;;6195007;23;20024;-83
2021/06/18 14:53:30;;;;;;;3.30;1.63;;;17.00;99.90;;;;;;6196351;23;20021;-83
2021/06/18 14:55:59;;;;;;;3.20;2.00;;;17.00;99.90;;;;;;6196685;23;20027;-82